sensor_id;sensor_type;location;lat;lon;timestamp;temperature;humidity
9215;DHT22;4642;51.364;6.788;2022-11-23T00:00:33;8.00;99.90
9215;DHT22;4642;51.364;6.788;2022-11-23T00:02:59;8.00;99.90
9215;DHT22;4642;51.364;6.788;2022-11-23T00:05:26;8.00;99.90
9215;DHT22;4642;51.364;6.788;2022-11-23T00:07:52;8.00;99.90
9215;DHT22;4642;51.364;6.788;2022-11-23T00:10:18;8.00;99.90
9215;DHT22;4642;51.364;6.788;2022-11-23T00:12:44;8.00;99.90
9215;DHT22;4642;51.364;6.788;2022-11-23T00:15:11;8.10;99.90
9215;DHT22;4642;51.364;6.788;2022-11-23T00:17:37;8.00;99.90
9215;DHT22;4642;51.364;6.788;2022-11-23T00:20:04;8.10;99.90
9215;DHT22;4642;51.364;6.788;2022-11-23T00:22:29;8.10;99.90
9215;DHT22;4642;51.364;6.788;2022-11-23T00:24:55;8.10;99.90
9215;DHT22;4642;51.364;6.788;2022-11-23T00:27:21;8.10;99.90
9215;DHT22;4642;51.364;6.788;2022-11-23T00:29:46;8.20;99.90
9215;DHT22;4642;51.364;6.788;2022-11-23T00:32:12;8.10;99.90
9215;DHT22;4642;51.364;6.788;2022-11-23T00:34:37;8.20;99.90
9215;DHT22;4642;51.364;6.788;2022-11-23T00:37:03;8.10;99.90
9215;DHT22;4642;51.364;6.788;2022-11-23T00:39:28;8.20;99.90
9215;DHT22;4642;51.364;6.788;2022-11-23T00:41:54;8.10;99.90
9215;DHT22;4642;51.364;6.788;2022-11-23T00:44:21;8.20;99.90
9215;DHT22;4642;51.364;6.788;2022-11-23T00:46:46;8.20;99.90
9215;DHT22;4642;51.364;6.788;2022-11-23T00:49:12;8.20;99.90
9215;DHT22;4642;51.364;6.788;2022-11-23T00:51:37;8.60;99.90
9215;DHT22;4642;51.364;6.788;2022-11-23T00:54:04;8.20;99.90
9215;DHT22;4642;51.364;6.788;2022-11-23T00:56:31;8.20;99.90
9215;DHT22;4642;51.364;6.788;2022-11-23T00:58:58;8.30;99.90
9215;DHT22;4642;51.364;6.788;2022-11-23T01:01:26;8.50;99.90
9215;DHT22;4642;51.364;6.788;2022-11-23T01:03:53;8.30;99.90
9215;DHT22;4642;51.364;6.788;2022-11-23T01:06:24;8.30;99.90
9215;DHT22;4642;51.364;6.788;2022-11-23T01:08:59;8.30;99.90
9215;DHT22;4642;51.364;6.788;2022-11-23T01:11:27;8.40;99.90
9215;DHT22;4642;51.364;6.788;2022-11-23T01:13:53;8.40;99.90
9215;DHT22;4642;51.364;6.788;2022-11-23T01:16:24;8.40;99.90
9215;DHT22;4642;51.364;6.788;2022-11-23T01:18:58;8.40;99.90
9215;DHT22;4642;51.364;6.788;2022-11-23T01:21:26;8.40;99.90
9215;DHT22;4642;51.364;6.788;2022-11-23T01:23:52;8.40;99.90
9215;DHT22;4642;51.364;6.788;2022-11-23T01:26:18;8.50;99.90
9215;DHT22;4642;51.364;6.788;2022-11-23T01:28:44;8.40;99.90
9215;DHT22;4642;51.364;6.788;2022-11-23T01:31:19;8.30;99.90
9215;DHT22;4642;51.364;6.788;2022-11-23T01:33:45;8.40;99.90
9215;DHT22;4642;51.364;6.788;2022-11-23T01:38:39;8.40;99.90
9215;DHT22;4642;51.364;6.788;2022-11-23T01:41:06;8.40;99.90
9215;DHT22;4642;51.364;6.788;2022-11-23T01:43:32;8.60;99.90
9215;DHT22;4642;51.364;6.788;2022-11-23T01:45:59;8.50;99.90
9215;DHT22;4642;51.364;6.788;2022-11-23T01:48:33;8.50;99.90
9215;DHT22;4642;51.364;6.788;2022-11-23T01:51:05;8.50;99.90
9215;DHT22;4642;51.364;6.788;2022-11-23T01:53:31;8.50;99.90
9215;DHT22;4642;51.364;6.788;2022-11-23T01:55:59;8.60;99.90
9215;DHT22;4642;51.364;6.788;2022-11-23T01:58:27;8.60;99.90
9215;DHT22;4642;51.364;6.788;2022-11-23T02:00:53;8.50;99.90
9215;DHT22;4642;51.364;6.788;2022-11-23T02:03:19;8.60;99.90
9215;DHT22;4642;51.364;6.788;2022-11-23T02:05:50;8.50;99.90
9215;DHT22;4642;51.364;6.788;2022-11-23T02:08:19;8.30;99.90
9215;DHT22;4642;51.364;6.788;2022-11-23T02:10:46;8.60;99.90
9215;DHT22;4642;51.364;6.788;2022-11-23T02:13:12;8.50;99.90
9215;DHT22;4642;51.364;6.788;2022-11-23T02:15:39;8.60;99.90
9215;DHT22;4642;51.364;6.788;2022-11-23T02:18:10;8.80;99.90
9215;DHT22;4642;51.364;6.788;2022-11-23T02:20:37;8.60;99.90
9215;DHT22;4642;51.364;6.788;2022-11-23T02:28:18;8.60;99.90
9215;DHT22;4642;51.364;6.788;2022-11-23T02:30:48;8.60;99.90
9215;DHT22;4642;51.364;6.788;2022-11-23T02:33:15;8.70;99.90
9215;DHT22;4642;51.364;6.788;2022-11-23T02:35:49;8.60;99.90
9215;DHT22;4642;51.364;6.788;2022-11-23T02:38:16;8.80;99.90
9215;DHT22;4642;51.364;6.788;2022-11-23T02:40:42;8.70;99.90
9215;DHT22;4642;51.364;6.788;2022-11-23T02:43:08;8.70;99.90
9215;DHT22;4642;51.364;6.788;2022-11-23T02:45:51;8.90;99.90
9215;DHT22;4642;51.364;6.788;2022-11-23T02:48:18;8.90;99.90
9215;DHT22;4642;51.364;6.788;2022-11-23T02:50:44;8.80;99.90
9215;DHT22;4642;51.364;6.788;2022-11-23T02:53:10;8.70;99.90
9215;DHT22;4642;51.364;6.788;2022-11-23T02:55:37;9.20;99.90
9215;DHT22;4642;51.364;6.788;2022-11-23T02:58:04;8.70;99.90
9215;DHT22;4642;51.364;6.788;2022-11-23T03:00:30;8.80;99.90
9215;DHT22;4642;51.364;6.788;2022-11-23T03:02:57;8.80;99.90
9215;DHT22;4642;51.364;6.788;2022-11-23T03:05:24;8.80;99.90
9215;DHT22;4642;51.364;6.788;2022-11-23T03:07:53;9.10;99.90
9215;DHT22;4642;51.364;6.788;2022-11-23T03:10:19;8.70;99.90
9215;DHT22;4642;51.364;6.788;2022-11-23T03:12:45;8.80;99.90
9215;DHT22;4642;51.364;6.788;2022-11-23T03:15:10;8.70;99.90
9215;DHT22;4642;51.364;6.788;2022-11-23T03:17:36;8.80;99.90
9215;DHT22;4642;51.364;6.788;2022-11-23T03:20:02;8.80;99.90
9215;DHT22;4642;51.364;6.788;2022-11-23T03:22:28;8.10;99.90
9215;DHT22;4642;51.364;6.788;2022-11-23T03:24:54;8.90;99.90
9215;DHT22;4642;51.364;6.788;2022-11-23T03:27:20;8.80;99.90
9215;DHT22;4642;51.364;6.788;2022-11-23T03:29:46;8.60;99.90
9215;DHT22;4642;51.364;6.788;2022-11-23T03:32:12;8.80;99.90
9215;DHT22;4642;51.364;6.788;2022-11-23T03:34:37;8.70;99.90
9215;DHT22;4642;51.364;6.788;2022-11-23T03:37:03;8.70;99.90
9215;DHT22;4642;51.364;6.788;2022-11-23T03:39:29;8.60;99.90
9215;DHT22;4642;51.364;6.788;2022-11-23T03:41:54;8.60;99.90
9215;DHT22;4642;51.364;6.788;2022-11-23T03:44:20;8.60;99.90
9215;DHT22;4642;51.364;6.788;2022-11-23T03:46:46;8.70;99.90
9215;DHT22;4642;51.364;6.788;2022-11-23T03:49:12;8.60;99.90
9215;DHT22;4642;51.364;6.788;2022-11-23T03:51:37;8.60;99.90
9215;DHT22;4642;51.364;6.788;2022-11-23T03:54:03;8.60;99.90
9215;DHT22;4642;51.364;6.788;2022-11-23T03:56:29;8.50;99.90
9215;DHT22;4642;51.364;6.788;2022-11-23T03:58:54;8.50;99.90
9215;DHT22;4642;51.364;6.788;2022-11-23T04:01:21;8.50;99.90
9215;DHT22;4642;51.364;6.788;2022-11-23T04:03:46;8.50;99.90
9215;DHT22;4642;51.364;6.788;2022-11-23T04:06:12;8.50;99.90
9215;DHT22;4642;51.364;6.788;2022-11-23T04:08:45;8.50;99.90
9215;DHT22;4642;51.364;6.788;2022-11-23T04:11:11;8.30;99.90
9215;DHT22;4642;51.364;6.788;2022-11-23T04:13:36;8.30;99.90
9215;DHT22;4642;51.364;6.788;2022-11-23T04:16:02;8.50;99.90
9215;DHT22;4642;51.364;6.788;2022-11-23T04:18:27;8.50;99.90
9215;DHT22;4642;51.364;6.788;2022-11-23T04:20:53;8.50;99.90
9215;DHT22;4642;51.364;6.788;2022-11-23T04:23:19;8.30;99.90
9215;DHT22;4642;51.364;6.788;2022-11-23T04:25:44;8.50;99.90
9215;DHT22;4642;51.364;6.788;2022-11-23T04:28:10;8.40;99.90
9215;DHT22;4642;51.364;6.788;2022-11-23T04:30:36;8.50;99.90
9215;DHT22;4642;51.364;6.788;2022-11-23T04:33:01;8.40;99.90
9215;DHT22;4642;51.364;6.788;2022-11-23T04:35:27;8.60;99.90
9215;DHT22;4642;51.364;6.788;2022-11-23T04:37:52;8.30;99.90
9215;DHT22;4642;51.364;6.788;2022-11-23T04:40:18;8.40;99.90
9215;DHT22;4642;51.364;6.788;2022-11-23T04:42:43;8.40;99.90
9215;DHT22;4642;51.364;6.788;2022-11-23T04:45:09;8.40;99.90
9215;DHT22;4642;51.364;6.788;2022-11-23T04:47:35;8.60;99.90
9215;DHT22;4642;51.364;6.788;2022-11-23T04:50:01;8.40;99.90
9215;DHT22;4642;51.364;6.788;2022-11-23T04:52:27;8.40;99.90
9215;DHT22;4642;51.364;6.788;2022-11-23T04:54:52;8.30;99.90
9215;DHT22;4642;51.364;6.788;2022-11-23T04:57:18;8.40;99.90
9215;DHT22;4642;51.364;6.788;2022-11-23T04:59:44;8.50;99.90
9215;DHT22;4642;51.364;6.788;2022-11-23T05:02:09;8.40;99.90
9215;DHT22;4642;51.364;6.788;2022-11-23T05:04:35;8.40;99.90
9215;DHT22;4642;51.364;6.788;2022-11-23T05:07:00;8.50;99.90
9215;DHT22;4642;51.364;6.788;2022-11-23T05:09:26;8.80;99.90
9215;DHT22;4642;51.364;6.788;2022-11-23T05:11:52;8.30;99.90
9215;DHT22;4642;51.364;6.788;2022-11-23T05:14:17;8.30;99.90
9215;DHT22;4642;51.364;6.788;2022-11-23T05:16:43;8.30;99.90
9215;DHT22;4642;51.364;6.788;2022-11-23T05:19:08;8.30;99.90
9215;DHT22;4642;51.364;6.788;2022-11-23T05:21:34;8.30;99.90
9215;DHT22;4642;51.364;6.788;2022-11-23T05:24:02;8.30;99.90
9215;DHT22;4642;51.364;6.788;2022-11-23T05:26:30;8.30;99.90
9215;DHT22;4642;51.364;6.788;2022-11-23T05:28:56;8.30;99.90
9215;DHT22;4642;51.364;6.788;2022-11-23T05:31:22;8.20;99.90
9215;DHT22;4642;51.364;6.788;2022-11-23T05:33:47;8.30;99.90
9215;DHT22;4642;51.364;6.788;2022-11-23T05:36:13;8.30;99.90
9215;DHT22;4642;51.364;6.788;2022-11-23T05:38:39;8.30;99.90
9215;DHT22;4642;51.364;6.788;2022-11-23T05:41:08;8.30;99.90
9215;DHT22;4642;51.364;6.788;2022-11-23T05:43:36;8.30;99.90
9215;DHT22;4642;51.364;6.788;2022-11-23T05:46:02;8.40;99.90
9215;DHT22;4642;51.364;6.788;2022-11-23T05:48:28;8.30;99.90
9215;DHT22;4642;51.364;6.788;2022-11-23T05:50:53;8.60;99.90
9215;DHT22;4642;51.364;6.788;2022-11-23T05:53:19;8.30;99.90
9215;DHT22;4642;51.364;6.788;2022-11-23T05:55:45;8.30;99.90
9215;DHT22;4642;51.364;6.788;2022-11-23T05:58:10;8.30;99.90
9215;DHT22;4642;51.364;6.788;2022-11-23T06:00:36;8.30;99.90
9215;DHT22;4642;51.364;6.788;2022-11-23T06:03:02;8.30;99.90
9215;DHT22;4642;51.364;6.788;2022-11-23T06:05:34;8.30;99.90
9215;DHT22;4642;51.364;6.788;2022-11-23T06:07:59;8.30;99.90
9215;DHT22;4642;51.364;6.788;2022-11-23T06:10:25;8.20;99.90
9215;DHT22;4642;51.364;6.788;2022-11-23T06:12:51;8.30;99.90
9215;DHT22;4642;51.364;6.788;2022-11-23T06:15:17;8.30;99.90
9215;DHT22;4642;51.364;6.788;2022-11-23T06:17:46;8.20;99.90
9215;DHT22;4642;51.364;6.788;2022-11-23T06:20:12;8.40;99.90
9215;DHT22;4642;51.364;6.788;2022-11-23T06:22:37;8.20;99.90
9215;DHT22;4642;51.364;6.788;2022-11-23T06:25:03;8.30;99.90
9215;DHT22;4642;51.364;6.788;2022-11-23T06:27:29;8.20;99.90
9215;DHT22;4642;51.364;6.788;2022-11-23T06:29:54;8.20;99.90
9215;DHT22;4642;51.364;6.788;2022-11-23T06:32:20;7.80;99.90
9215;DHT22;4642;51.364;6.788;2022-11-23T06:34:45;8.20;99.90
9215;DHT22;4642;51.364;6.788;2022-11-23T06:37:11;8.20;99.90
9215;DHT22;4642;51.364;6.788;2022-11-23T06:39:37;8.20;99.90
9215;DHT22;4642;51.364;6.788;2022-11-23T06:42:02;8.20;99.90
9215;DHT22;4642;51.364;6.788;2022-11-23T06:44:28;8.20;99.90
9215;DHT22;4642;51.364;6.788;2022-11-23T06:46:53;8.20;99.90
9215;DHT22;4642;51.364;6.788;2022-11-23T06:49:19;8.20;99.90
9215;DHT22;4642;51.364;6.788;2022-11-23T06:51:46;8.20;99.90
9215;DHT22;4642;51.364;6.788;2022-11-23T06:54:11;8.20;99.90
9215;DHT22;4642;51.364;6.788;2022-11-23T06:56:37;8.20;99.90
9215;DHT22;4642;51.364;6.788;2022-11-23T06:59:03;8.20;99.90
9215;DHT22;4642;51.364;6.788;2022-11-23T07:01:29;8.20;99.90
9215;DHT22;4642;51.364;6.788;2022-11-23T07:03:54;8.20;99.90
9215;DHT22;4642;51.364;6.788;2022-11-23T07:06:20;8.20;99.90
9215;DHT22;4642;51.364;6.788;2022-11-23T07:08:45;8.20;99.90
9215;DHT22;4642;51.364;6.788;2022-11-23T07:11:11;8.20;99.90
9215;DHT22;4642;51.364;6.788;2022-11-23T07:13:37;8.20;99.90
9215;DHT22;4642;51.364;6.788;2022-11-23T07:16:03;8.20;99.90
9215;DHT22;4642;51.364;6.788;2022-11-23T07:18:29;8.20;99.90
9215;DHT22;4642;51.364;6.788;2022-11-23T07:20:56;8.20;99.90
9215;DHT22;4642;51.364;6.788;2022-11-23T07:23:22;8.10;99.90
9215;DHT22;4642;51.364;6.788;2022-11-23T07:25:48;8.20;99.90
9215;DHT22;4642;51.364;6.788;2022-11-23T07:28:13;8.20;99.90
9215;DHT22;4642;51.364;6.788;2022-11-23T07:30:39;8.20;99.90
9215;DHT22;4642;51.364;6.788;2022-11-23T07:33:06;8.10;99.90
9215;DHT22;4642;51.364;6.788;2022-11-23T07:35:33;8.20;99.90
9215;DHT22;4642;51.364;6.788;2022-11-23T07:37:59;8.20;99.90
9215;DHT22;4642;51.364;6.788;2022-11-23T07:40:25;8.20;99.90
9215;DHT22;4642;51.364;6.788;2022-11-23T07:42:51;8.20;99.90
9215;DHT22;4642;51.364;6.788;2022-11-23T07:45:17;8.20;99.90
9215;DHT22;4642;51.364;6.788;2022-11-23T07:47:42;8.20;99.90
9215;DHT22;4642;51.364;6.788;2022-11-23T07:50:09;8.20;99.90
9215;DHT22;4642;51.364;6.788;2022-11-23T07:52:35;8.20;99.90
9215;DHT22;4642;51.364;6.788;2022-11-23T07:55:02;8.20;99.90
9215;DHT22;4642;51.364;6.788;2022-11-23T07:57:27;8.20;99.90
9215;DHT22;4642;51.364;6.788;2022-11-23T07:59:53;8.30;99.90
9215;DHT22;4642;51.364;6.788;2022-11-23T08:02:19;8.30;99.90
9215;DHT22;4642;51.364;6.788;2022-11-23T08:04:45;8.20;99.90
9215;DHT22;4642;51.364;6.788;2022-11-23T08:07:11;8.30;99.90
9215;DHT22;4642;51.364;6.788;2022-11-23T08:09:36;8.30;99.90
9215;DHT22;4642;51.364;6.788;2022-11-23T08:12:02;8.30;99.90
9215;DHT22;4642;51.364;6.788;2022-11-23T08:14:27;8.30;99.90
9215;DHT22;4642;51.364;6.788;2022-11-23T08:16:53;8.40;99.90
9215;DHT22;4642;51.364;6.788;2022-11-23T08:19:18;8.40;99.90
9215;DHT22;4642;51.364;6.788;2022-11-23T08:21:44;8.40;99.90
9215;DHT22;4642;51.364;6.788;2022-11-23T08:24:10;8.40;99.90
9215;DHT22;4642;51.364;6.788;2022-11-23T08:26:36;8.50;99.90
9215;DHT22;4642;51.364;6.788;2022-11-23T08:29:02;8.50;99.90
9215;DHT22;4642;51.364;6.788;2022-11-23T08:31:28;8.50;99.90
9215;DHT22;4642;51.364;6.788;2022-11-23T08:33:53;8.50;99.90
9215;DHT22;4642;51.364;6.788;2022-11-23T08:36:19;8.50;99.90
9215;DHT22;4642;51.364;6.788;2022-11-23T08:38:45;8.60;99.90
9215;DHT22;4642;51.364;6.788;2022-11-23T08:41:10;8.60;99.90
9215;DHT22;4642;51.364;6.788;2022-11-23T08:43:36;8.70;99.90
9215;DHT22;4642;51.364;6.788;2022-11-23T08:46:04;8.70;99.90
9215;DHT22;4642;51.364;6.788;2022-11-23T08:48:29;8.70;99.90
9215;DHT22;4642;51.364;6.788;2022-11-23T08:50:58;8.70;99.90
9215;DHT22;4642;51.364;6.788;2022-11-23T08:53:25;8.70;99.90
9215;DHT22;4642;51.364;6.788;2022-11-23T08:55:50;8.70;99.90
9215;DHT22;4642;51.364;6.788;2022-11-23T08:58:16;8.70;99.90
9215;DHT22;4642;51.364;6.788;2022-11-23T09:00:41;8.70;99.90
9215;DHT22;4642;51.364;6.788;2022-11-23T09:03:07;8.80;99.90
9215;DHT22;4642;51.364;6.788;2022-11-23T09:05:32;8.80;99.90
9215;DHT22;4642;51.364;6.788;2022-11-23T09:08:01;8.80;99.90
9215;DHT22;4642;51.364;6.788;2022-11-23T09:10:27;8.80;99.90
9215;DHT22;4642;51.364;6.788;2022-11-23T09:12:52;8.80;99.90
9215;DHT22;4642;51.364;6.788;2022-11-23T09:15:18;8.90;99.90
9215;DHT22;4642;51.364;6.788;2022-11-23T09:17:44;8.90;99.90
9215;DHT22;4642;51.364;6.788;2022-11-23T09:20:10;8.90;99.90
9215;DHT22;4642;51.364;6.788;2022-11-23T09:22:35;8.90;99.90
9215;DHT22;4642;51.364;6.788;2022-11-23T09:25:02;8.90;99.90
9215;DHT22;4642;51.364;6.788;2022-11-23T09:27:27;9.00;99.90
9215;DHT22;4642;51.364;6.788;2022-11-23T09:29:54;9.00;99.90
9215;DHT22;4642;51.364;6.788;2022-11-23T09:32:19;9.00;99.90
9215;DHT22;4642;51.364;6.788;2022-11-23T09:34:45;9.10;99.90
9215;DHT22;4642;51.364;6.788;2022-11-23T09:37:11;9.10;99.90
9215;DHT22;4642;51.364;6.788;2022-11-23T09:39:37;9.10;99.90
9215;DHT22;4642;51.364;6.788;2022-11-23T09:45:13;9.20;99.90
9215;DHT22;4642;51.364;6.788;2022-11-23T09:53:18;9.30;99.90
9215;DHT22;4642;51.364;6.788;2022-11-23T09:55:50;9.30;99.90
9215;DHT22;4642;51.364;6.788;2022-11-23T09:58:18;9.30;99.90
9215;DHT22;4642;51.364;6.788;2022-11-23T10:00:55;9.40;99.90
9215;DHT22;4642;51.364;6.788;2022-11-23T10:03:23;9.40;99.90
9215;DHT22;4642;51.364;6.788;2022-11-23T10:06:01;9.40;99.90
9215;DHT22;4642;51.364;6.788;2022-11-23T10:16:38;9.50;99.90
9215;DHT22;4642;51.364;6.788;2022-11-23T10:24:53;9.50;99.90
9215;DHT22;4642;51.364;6.788;2022-11-23T10:27:22;9.50;99.90
9215;DHT22;4642;51.364;6.788;2022-11-23T10:29:48;9.50;99.90
9215;DHT22;4642;51.364;6.788;2022-11-23T10:32:28;9.50;99.90
9215;DHT22;4642;51.364;6.788;2022-11-23T10:35:05;9.50;99.90
9215;DHT22;4642;51.364;6.788;2022-11-23T10:37:33;9.50;99.90
9215;DHT22;4642;51.364;6.788;2022-11-23T10:39:59;9.50;99.90
9215;DHT22;4642;51.364;6.788;2022-11-23T10:42:29;9.50;99.90
9215;DHT22;4642;51.364;6.788;2022-11-23T10:44:58;9.60;99.90
9215;DHT22;4642;51.364;6.788;2022-11-23T10:47:54;9.60;99.90
9215;DHT22;4642;51.364;6.788;2022-11-23T10:50:28;9.70;99.90
9215;DHT22;4642;51.364;6.788;2022-11-23T10:52:56;9.70;99.90
9215;DHT22;4642;51.364;6.788;2022-11-23T10:55:28;9.70;99.90
9215;DHT22;4642;51.364;6.788;2022-11-23T10:57:55;9.70;99.90
9215;DHT22;4642;51.364;6.788;2022-11-23T11:00:22;9.80;99.90
9215;DHT22;4642;51.364;6.788;2022-11-23T11:02:53;9.80;99.90
9215;DHT22;4642;51.364;6.788;2022-11-23T11:05:32;9.90;99.90
9215;DHT22;4642;51.364;6.788;2022-11-23T11:08:01;9.90;99.90
9215;DHT22;4642;51.364;6.788;2022-11-23T11:10:32;9.90;99.90
9215;DHT22;4642;51.364;6.788;2022-11-23T11:12:58;9.90;99.90
9215;DHT22;4642;51.364;6.788;2022-11-23T11:15:23;9.90;99.90
9215;DHT22;4642;51.364;6.788;2022-11-23T11:17:56;9.90;99.90
9215;DHT22;4642;51.364;6.788;2022-11-23T11:20:31;10.00;99.90
9215;DHT22;4642;51.364;6.788;2022-11-23T11:23:03;10.00;99.90
9215;DHT22;4642;51.364;6.788;2022-11-23T11:25:35;10.00;99.90
9215;DHT22;4642;51.364;6.788;2022-11-23T11:28:03;10.00;99.90
9215;DHT22;4642;51.364;6.788;2022-11-23T11:33:22;10.10;99.90
9215;DHT22;4642;51.364;6.788;2022-11-23T11:35:51;10.10;99.90
9215;DHT22;4642;51.364;6.788;2022-11-23T11:38:31;10.10;99.90
9215;DHT22;4642;51.364;6.788;2022-11-23T11:41:01;10.10;99.90
9215;DHT22;4642;51.364;6.788;2022-11-23T11:43:43;10.10;99.90
9215;DHT22;4642;51.364;6.788;2022-11-23T11:46:36;10.10;99.90
9215;DHT22;4642;51.364;6.788;2022-11-23T11:49:21;10.10;99.90
9215;DHT22;4642;51.364;6.788;2022-11-23T11:52:01;10.10;99.90
9215;DHT22;4642;51.364;6.788;2022-11-23T11:55:00;10.10;99.90
9215;DHT22;4642;51.364;6.788;2022-11-23T11:57:31;10.10;99.90
9215;DHT22;4642;51.364;6.788;2022-11-23T12:00:00;10.10;99.90
9215;DHT22;4642;51.364;6.788;2022-11-23T12:05:23;10.10;99.90
9215;DHT22;4642;51.364;6.788;2022-11-23T12:08:05;10.10;99.90
9215;DHT22;4642;51.364;6.788;2022-11-23T12:11:02;10.20;99.90
9215;DHT22;4642;51.364;6.788;2022-11-23T12:13:33;10.20;99.90
9215;DHT22;4642;51.364;6.788;2022-11-23T12:19:18;10.20;99.90
9215;DHT22;4642;51.364;6.788;2022-11-23T12:49:49;10.30;99.90
9215;DHT22;4642;51.364;6.788;2022-11-23T12:52:44;10.30;99.90
9215;DHT22;4642;51.364;6.788;2022-11-23T12:58:28;10.20;99.90
9215;DHT22;4642;51.364;6.788;2022-11-23T13:00:55;10.30;99.90
9215;DHT22;4642;51.364;6.788;2022-11-23T13:12:25;10.40;99.90
9215;DHT22;4642;51.364;6.788;2022-11-23T13:17:46;10.40;99.90
9215;DHT22;4642;51.364;6.788;2022-11-23T13:22:44;10.40;99.90
9215;DHT22;4642;51.364;6.788;2022-11-23T13:28:01;10.40;99.90
9215;DHT22;4642;51.364;6.788;2022-11-23T13:30:32;10.40;99.90
9215;DHT22;4642;51.364;6.788;2022-11-23T13:35:48;10.40;99.90
9215;DHT22;4642;51.364;6.788;2022-11-23T13:40:42;10.30;99.90
9215;DHT22;4642;51.364;6.788;2022-11-23T13:43:29;10.30;99.90
9215;DHT22;4642;51.364;6.788;2022-11-23T13:46:17;10.30;99.90
9215;DHT22;4642;51.364;6.788;2022-11-23T13:48:46;10.20;99.90
9215;DHT22;4642;51.364;6.788;2022-11-23T13:51:12;10.20;99.90
9215;DHT22;4642;51.364;6.788;2022-11-23T13:53:51;10.10;99.90
9215;DHT22;4642;51.364;6.788;2022-11-23T13:56:30;10.10;99.90
9215;DHT22;4642;51.364;6.788;2022-11-23T13:58:59;10.00;99.90
9215;DHT22;4642;51.364;6.788;2022-11-23T14:04:47;9.90;99.90
9215;DHT22;4642;51.364;6.788;2022-11-23T14:07:29;9.90;99.90
9215;DHT22;4642;51.364;6.788;2022-11-23T14:10:16;9.80;99.90
9215;DHT22;4642;51.364;6.788;2022-11-23T14:13:00;9.80;99.90
9215;DHT22;4642;51.364;6.788;2022-11-23T14:15:29;9.80;99.90
9215;DHT22;4642;51.364;6.788;2022-11-23T14:26:29;9.70;99.90
9215;DHT22;4642;51.364;6.788;2022-11-23T14:31:57;9.60;99.90
9215;DHT22;4642;51.364;6.788;2022-11-23T14:34:32;9.60;99.90
9215;DHT22;4642;51.364;6.788;2022-11-23T14:37:30;9.50;99.90
9215;DHT22;4642;51.364;6.788;2022-11-23T14:40:17;9.50;99.90
9215;DHT22;4642;51.364;6.788;2022-11-23T14:42:51;9.50;99.90
9215;DHT22;4642;51.364;6.788;2022-11-23T14:45:20;9.50;99.90
9215;DHT22;4642;51.364;6.788;2022-11-23T14:47:46;9.40;99.90
9215;DHT22;4642;51.364;6.788;2022-11-23T14:50:30;9.40;99.90
9215;DHT22;4642;51.364;6.788;2022-11-23T14:53:05;9.40;99.90
9215;DHT22;4642;51.364;6.788;2022-11-23T14:55:34;9.40;99.90
9215;DHT22;4642;51.364;6.788;2022-11-23T14:58:03;9.40;99.90
9215;DHT22;4642;51.364;6.788;2022-11-23T15:00:37;9.40;99.90
9215;DHT22;4642;51.364;6.788;2022-11-23T15:03:26;9.40;99.90
9215;DHT22;4642;51.364;6.788;2022-11-23T15:05:56;9.40;99.90
9215;DHT22;4642;51.364;6.788;2022-11-23T15:08:29;9.40;99.90
9215;DHT22;4642;51.364;6.788;2022-11-23T15:13:23;9.40;99.90
9215;DHT22;4642;51.364;6.788;2022-11-23T15:15:54;9.40;99.90
9215;DHT22;4642;51.364;6.788;2022-11-23T15:18:33;9.40;99.90
9215;DHT22;4642;51.364;6.788;2022-11-23T15:23:46;9.40;99.90
9215;DHT22;4642;51.364;6.788;2022-11-23T15:26:15;9.40;99.90
9215;DHT22;4642;51.364;6.788;2022-11-23T15:28:41;9.40;99.90
9215;DHT22;4642;51.364;6.788;2022-11-23T15:31:32;9.40;99.90
9215;DHT22;4642;51.364;6.788;2022-11-23T15:34:14;9.40;99.90
9215;DHT22;4642;51.364;6.788;2022-11-23T15:36:42;9.40;99.90
9215;DHT22;4642;51.364;6.788;2022-11-23T15:39:17;9.40;99.90
9215;DHT22;4642;51.364;6.788;2022-11-23T15:41:44;9.30;99.90
9215;DHT22;4642;51.364;6.788;2022-11-23T15:44:22;9.30;99.90
9215;DHT22;4642;51.364;6.788;2022-11-23T15:46:51;9.30;99.90
9215;DHT22;4642;51.364;6.788;2022-11-23T15:49:17;9.20;99.90
9215;DHT22;4642;51.364;6.788;2022-11-23T15:51:44;9.10;99.90
9215;DHT22;4642;51.364;6.788;2022-11-23T15:54:22;9.10;99.90
9215;DHT22;4642;51.364;6.788;2022-11-23T15:56:52;9.00;99.90
9215;DHT22;4642;51.364;6.788;2022-11-23T16:01:45;8.90;99.90
9215;DHT22;4642;51.364;6.788;2022-11-23T16:04:34;8.90;99.90
9215;DHT22;4642;51.364;6.788;2022-11-23T16:07:14;8.90;99.90
9215;DHT22;4642;51.364;6.788;2022-11-23T16:09:42;8.80;99.90
9215;DHT22;4642;51.364;6.788;2022-11-23T16:12:24;8.80;99.90
9215;DHT22;4642;51.364;6.788;2022-11-23T16:14:51;8.70;99.90
9215;DHT22;4642;51.364;6.788;2022-11-23T16:17:27;8.70;99.90
9215;DHT22;4642;51.364;6.788;2022-11-23T16:19:55;8.70;99.90
9215;DHT22;4642;51.364;6.788;2022-11-23T16:22:46;8.70;99.90
9215;DHT22;4642;51.364;6.788;2022-11-23T16:25:26;8.70;99.90
9215;DHT22;4642;51.364;6.788;2022-11-23T16:28:16;8.60;99.90
9215;DHT22;4642;51.364;6.788;2022-11-23T16:30:44;8.60;99.90
9215;DHT22;4642;51.364;6.788;2022-11-23T16:33:18;8.60;99.90
9215;DHT22;4642;51.364;6.788;2022-11-23T16:35:44;8.60;99.90
9215;DHT22;4642;51.364;6.788;2022-11-23T16:38:09;8.60;99.90
9215;DHT22;4642;51.364;6.788;2022-11-23T16:40:37;8.50;99.90
9215;DHT22;4642;51.364;6.788;2022-11-23T16:43:02;8.50;99.90
9215;DHT22;4642;51.364;6.788;2022-11-23T16:45:28;8.50;99.90
9215;DHT22;4642;51.364;6.788;2022-11-23T16:47:57;8.50;99.90
9215;DHT22;4642;51.364;6.788;2022-11-23T16:50:27;8.40;99.90
9215;DHT22;4642;51.364;6.788;2022-11-23T16:52:53;8.40;99.90
9215;DHT22;4642;51.364;6.788;2022-11-23T16:55:19;8.40;99.90
9215;DHT22;4642;51.364;6.788;2022-11-23T16:57:45;8.50;99.90
9215;DHT22;4642;51.364;6.788;2022-11-23T17:00:16;8.40;99.90
9215;DHT22;4642;51.364;6.788;2022-11-23T17:02:42;8.40;99.90
9215;DHT22;4642;51.364;6.788;2022-11-23T17:05:21;8.40;99.90
9215;DHT22;4642;51.364;6.788;2022-11-23T17:07:48;8.40;99.90
9215;DHT22;4642;51.364;6.788;2022-11-23T17:10:14;8.30;99.90
9215;DHT22;4642;51.364;6.788;2022-11-23T17:12:50;8.30;99.90
9215;DHT22;4642;51.364;6.788;2022-11-23T17:15:21;8.30;99.90
9215;DHT22;4642;51.364;6.788;2022-11-23T17:17:47;8.30;99.90
9215;DHT22;4642;51.364;6.788;2022-11-23T17:20:13;8.30;99.90
9215;DHT22;4642;51.364;6.788;2022-11-23T17:22:39;8.30;99.90
9215;DHT22;4642;51.364;6.788;2022-11-23T17:25:06;8.30;99.90
9215;DHT22;4642;51.364;6.788;2022-11-23T17:27:34;8.30;99.90
9215;DHT22;4642;51.364;6.788;2022-11-23T17:30:02;8.30;99.90
9215;DHT22;4642;51.364;6.788;2022-11-23T17:32:30;8.30;99.90
9215;DHT22;4642;51.364;6.788;2022-11-23T17:34:57;8.30;99.90
9215;DHT22;4642;51.364;6.788;2022-11-23T17:37:23;8.30;99.90
9215;DHT22;4642;51.364;6.788;2022-11-23T17:39:49;8.20;99.90
9215;DHT22;4642;51.364;6.788;2022-11-23T17:42:15;8.20;99.90
9215;DHT22;4642;51.364;6.788;2022-11-23T17:44:41;8.20;99.90
9215;DHT22;4642;51.364;6.788;2022-11-23T17:47:32;8.20;99.90
9215;DHT22;4642;51.364;6.788;2022-11-23T17:49:58;8.20;99.90
9215;DHT22;4642;51.364;6.788;2022-11-23T17:52:24;8.20;99.90
9215;DHT22;4642;51.364;6.788;2022-11-23T17:54:50;8.20;99.90
9215;DHT22;4642;51.364;6.788;2022-11-23T17:57:22;8.20;99.90
9215;DHT22;4642;51.364;6.788;2022-11-23T17:59:49;8.10;99.90
9215;DHT22;4642;51.364;6.788;2022-11-23T18:02:14;8.20;99.90
9215;DHT22;4642;51.364;6.788;2022-11-23T18:04:40;8.10;99.90
9215;DHT22;4642;51.364;6.788;2022-11-23T18:07:08;8.10;99.90
9215;DHT22;4642;51.364;6.788;2022-11-23T18:09:34;8.10;99.90
9215;DHT22;4642;51.364;6.788;2022-11-23T18:12:00;8.10;99.90
9215;DHT22;4642;51.364;6.788;2022-11-23T18:14:26;8.10;99.90
9215;DHT22;4642;51.364;6.788;2022-11-23T18:16:53;8.10;99.90
9215;DHT22;4642;51.364;6.788;2022-11-23T18:19:20;8.00;99.90
9215;DHT22;4642;51.364;6.788;2022-11-23T18:21:45;8.00;99.90